sensor_id;sensor_type;location;lat;lon;timestamp;temperature;humidity
10447;DHT22;5271;44.422;26.092;2023-02-25T00:00:33;13.30;98.70
10447;DHT22;5271;44.422;26.092;2023-02-25T00:03:01;13.20;98.80
10447;DHT22;5271;44.422;26.092;2023-02-25T00:05:28;13.20;99.00
10447;DHT22;5271;44.422;26.092;2023-02-25T00:07:55;13.10;99.00
10447;DHT22;5271;44.422;26.092;2023-02-25T00:10:22;13.00;98.90
10447;DHT22;5271;44.422;26.092;2023-02-25T00:12:49;12.90;99.10
10447;DHT22;5271;44.422;26.092;2023-02-25T00:15:16;12.90;99.20
10447;DHT22;5271;44.422;26.092;2023-02-25T00:17:43;12.80;99.20
10447;DHT22;5271;44.422;26.092;2023-02-25T00:20:11;12.90;99.20
10447;DHT22;5271;44.422;26.092;2023-02-25T00:22:38;12.80;98.90
10447;DHT22;5271;44.422;26.092;2023-02-25T00:25:06;12.80;98.60
10447;DHT22;5271;44.422;26.092;2023-02-25T00:27:34;12.80;98.70
10447;DHT22;5271;44.422;26.092;2023-02-25T00:30:02;12.80;98.50
10447;DHT22;5271;44.422;26.092;2023-02-25T00:32:30;12.80;98.40
10447;DHT22;5271;44.422;26.092;2023-02-25T00:34:57;12.90;98.30
10447;DHT22;5271;44.422;26.092;2023-02-25T00:37:25;12.90;98.00
10447;DHT22;5271;44.422;26.092;2023-02-25T00:39:52;12.80;97.60
10447;DHT22;5271;44.422;26.092;2023-02-25T00:42:19;12.90;97.80
10447;DHT22;5271;44.422;26.092;2023-02-25T00:44:47;12.90;97.60
10447;DHT22;5271;44.422;26.092;2023-02-25T00:47:16;12.90;97.60
10447;DHT22;5271;44.422;26.092;2023-02-25T00:49:44;12.90;97.60
10447;DHT22;5271;44.422;26.092;2023-02-25T00:52:12;12.90;97.50
10447;DHT22;5271;44.422;26.092;2023-02-25T00:54:40;12.90;97.20
10447;DHT22;5271;44.422;26.092;2023-02-25T00:57:07;12.80;97.10
10447;DHT22;5271;44.422;26.092;2023-02-25T00:59:34;12.80;97.10
10447;DHT22;5271;44.422;26.092;2023-02-25T01:02:01;12.90;97.00
10447;DHT22;5271;44.422;26.092;2023-02-25T01:04:28;12.80;96.10
10447;DHT22;5271;44.422;26.092;2023-02-25T01:06:55;12.70;96.00
10447;DHT22;5271;44.422;26.092;2023-02-25T01:09:22;12.60;95.90
10447;DHT22;5271;44.422;26.092;2023-02-25T01:11:50;12.60;96.20
10447;DHT22;5271;44.422;26.092;2023-02-25T01:14:19;12.50;96.10
10447;DHT22;5271;44.422;26.092;2023-02-25T01:16:46;12.50;96.00
10447;DHT22;5271;44.422;26.092;2023-02-25T01:19:15;12.50;96.00
10447;DHT22;5271;44.422;26.092;2023-02-25T01:21:44;12.50;95.80
10447;DHT22;5271;44.422;26.092;2023-02-25T01:24:13;12.40;95.90
10447;DHT22;5271;44.422;26.092;2023-02-25T01:26:41;12.30;96.00
10447;DHT22;5271;44.422;26.092;2023-02-25T01:29:12;12.30;96.10
10447;DHT22;5271;44.422;26.092;2023-02-25T01:31:39;12.30;96.20
10447;DHT22;5271;44.422;26.092;2023-02-25T01:34:09;12.30;96.30
10447;DHT22;5271;44.422;26.092;2023-02-25T01:36:36;12.30;96.10
10447;DHT22;5271;44.422;26.092;2023-02-25T01:39:03;12.40;95.90
10447;DHT22;5271;44.422;26.092;2023-02-25T01:41:31;12.30;95.30
10447;DHT22;5271;44.422;26.092;2023-02-25T01:44:04;12.20;95.40
10447;DHT22;5271;44.422;26.092;2023-02-25T01:46:32;12.20;95.10
10447;DHT22;5271;44.422;26.092;2023-02-25T01:49:00;12.10;95.20
10447;DHT22;5271;44.422;26.092;2023-02-25T01:51:28;12.00;95.20
10447;DHT22;5271;44.422;26.092;2023-02-25T01:53:57;12.00;95.00
10447;DHT22;5271;44.422;26.092;2023-02-25T01:56:28;11.90;95.10
10447;DHT22;5271;44.422;26.092;2023-02-25T01:58:56;11.80;95.00
10447;DHT22;5271;44.422;26.092;2023-02-25T02:01:25;11.80;95.10
10447;DHT22;5271;44.422;26.092;2023-02-25T02:03:56;11.80;95.00
10447;DHT22;5271;44.422;26.092;2023-02-25T02:06:26;11.70;95.10
10447;DHT22;5271;44.422;26.092;2023-02-25T02:08:55;11.70;95.20
10447;DHT22;5271;44.422;26.092;2023-02-25T02:11:22;11.70;95.50
10447;DHT22;5271;44.422;26.092;2023-02-25T02:13:51;11.70;95.60
10447;DHT22;5271;44.422;26.092;2023-02-25T02:16:35;11.80;95.80
10447;DHT22;5271;44.422;26.092;2023-02-25T02:19:15;11.80;95.40
10447;DHT22;5271;44.422;26.092;2023-02-25T02:21:54;11.70;95.60
10447;DHT22;5271;44.422;26.092;2023-02-25T02:24:54;11.70;95.50
10447;DHT22;5271;44.422;26.092;2023-02-25T02:27:29;11.70;95.50
10447;DHT22;5271;44.422;26.092;2023-02-25T02:30:21;11.70;95.60
10447;DHT22;5271;44.422;26.092;2023-02-25T02:32:56;11.60;95.20
10447;DHT22;5271;44.422;26.092;2023-02-25T02:35:34;11.60;95.20
10447;DHT22;5271;44.422;26.092;2023-02-25T02:38:10;11.60;95.20
10447;DHT22;5271;44.422;26.092;2023-02-25T02:40:44;11.60;95.00
10447;DHT22;5271;44.422;26.092;2023-02-25T02:43:31;11.50;94.80
10447;DHT22;5271;44.422;26.092;2023-02-25T02:46:05;11.50;95.10
10447;DHT22;5271;44.422;26.092;2023-02-25T02:48:38;11.50;94.90
10447;DHT22;5271;44.422;26.092;2023-02-25T02:51:10;11.50;95.00
10447;DHT22;5271;44.422;26.092;2023-02-25T02:53:42;11.50;94.90
10447;DHT22;5271;44.422;26.092;2023-02-25T02:56:12;11.50;94.70
10447;DHT22;5271;44.422;26.092;2023-02-25T02:58:43;11.40;94.80
10447;DHT22;5271;44.422;26.092;2023-02-25T03:01:13;11.40;94.70
10447;DHT22;5271;44.422;26.092;2023-02-25T03:03:44;11.40;94.70
10447;DHT22;5271;44.422;26.092;2023-02-25T03:06:15;11.40;94.50
10447;DHT22;5271;44.422;26.092;2023-02-25T03:08:46;11.40;94.90
10447;DHT22;5271;44.422;26.092;2023-02-25T03:11:14;11.40;95.00
10447;DHT22;5271;44.422;26.092;2023-02-25T03:13:42;11.40;95.00
10447;DHT22;5271;44.422;26.092;2023-02-25T03:16:11;11.50;94.90
10447;DHT22;5271;44.422;26.092;2023-02-25T03:18:46;11.50;94.90
10447;DHT22;5271;44.422;26.092;2023-02-25T03:21:20;11.50;94.50
10447;DHT22;5271;44.422;26.092;2023-02-25T03:23:47;11.40;94.60
10447;DHT22;5271;44.422;26.092;2023-02-25T03:26:20;11.30;94.60
10447;DHT22;5271;44.422;26.092;2023-02-25T03:28:48;11.30;94.80
10447;DHT22;5271;44.422;26.092;2023-02-25T03:31:19;11.40;94.60
10447;DHT22;5271;44.422;26.092;2023-02-25T03:33:51;11.40;94.90
10447;DHT22;5271;44.422;26.092;2023-02-25T03:36:23;11.40;94.90
10447;DHT22;5271;44.422;26.092;2023-02-25T03:38:54;11.50;94.80
10447;DHT22;5271;44.422;26.092;2023-02-25T03:41:25;11.50;94.80
10447;DHT22;5271;44.422;26.092;2023-02-25T03:43:55;11.50;94.80
10447;DHT22;5271;44.422;26.092;2023-02-25T03:46:24;11.50;94.90
10447;DHT22;5271;44.422;26.092;2023-02-25T03:48:55;11.50;94.90
10447;DHT22;5271;44.422;26.092;2023-02-25T03:51:27;11.60;94.60
10447;DHT22;5271;44.422;26.092;2023-02-25T03:53:55;11.50;94.60
10447;DHT22;5271;44.422;26.092;2023-02-25T03:56:22;11.60;94.60
10447;DHT22;5271;44.422;26.092;2023-02-25T03:58:48;11.60;94.50
10447;DHT22;5271;44.422;26.092;2023-02-25T04:01:18;11.50;94.30
10447;DHT22;5271;44.422;26.092;2023-02-25T04:03:47;11.40;94.10
10447;DHT22;5271;44.422;26.092;2023-02-25T04:06:19;11.40;94.30
10447;DHT22;5271;44.422;26.092;2023-02-25T04:08:46;11.40;94.40
10447;DHT22;5271;44.422;26.092;2023-02-25T04:11:13;11.30;94.40
10447;DHT22;5271;44.422;26.092;2023-02-25T04:13:41;11.30;94.30
10447;DHT22;5271;44.422;26.092;2023-02-25T04:16:08;11.20;94.40
10447;DHT22;5271;44.422;26.092;2023-02-25T04:18:35;11.20;94.50
10447;DHT22;5271;44.422;26.092;2023-02-25T04:21:04;11.20;94.70
10447;DHT22;5271;44.422;26.092;2023-02-25T04:23:32;11.20;94.60
10447;DHT22;5271;44.422;26.092;2023-02-25T04:25:59;11.10;94.40
10447;DHT22;5271;44.422;26.092;2023-02-25T04:28:26;11.00;94.60
10447;DHT22;5271;44.422;26.092;2023-02-25T04:30:53;11.00;94.70
10447;DHT22;5271;44.422;26.092;2023-02-25T04:33:20;10.90;94.80
10447;DHT22;5271;44.422;26.092;2023-02-25T04:35:47;10.80;94.80
10447;DHT22;5271;44.422;26.092;2023-02-25T04:38:14;10.80;94.90
10447;DHT22;5271;44.422;26.092;2023-02-25T04:40:42;10.70;95.10
10447;DHT22;5271;44.422;26.092;2023-02-25T04:43:09;10.70;95.30
10447;DHT22;5271;44.422;26.092;2023-02-25T04:45:35;10.70;95.20
10447;DHT22;5271;44.422;26.092;2023-02-25T04:48:03;10.70;95.20
10447;DHT22;5271;44.422;26.092;2023-02-25T04:50:30;10.70;95.20
10447;DHT22;5271;44.422;26.092;2023-02-25T04:52:58;10.70;95.20
10447;DHT22;5271;44.422;26.092;2023-02-25T04:55:26;10.80;95.20
10447;DHT22;5271;44.422;26.092;2023-02-25T04:57:55;10.90;95.10
10447;DHT22;5271;44.422;26.092;2023-02-25T05:00:23;10.90;95.00
10447;DHT22;5271;44.422;26.092;2023-02-25T05:02:49;10.90;95.00
10447;DHT22;5271;44.422;26.092;2023-02-25T05:05:17;10.90;95.00
10447;DHT22;5271;44.422;26.092;2023-02-25T05:07:44;10.90;94.90
10447;DHT22;5271;44.422;26.092;2023-02-25T05:10:12;10.90;94.90
10447;DHT22;5271;44.422;26.092;2023-02-25T05:12:40;10.90;94.90
10447;DHT22;5271;44.422;26.092;2023-02-25T05:15:10;10.90;94.80
10447;DHT22;5271;44.422;26.092;2023-02-25T05:17:37;10.80;94.60
10447;DHT22;5271;44.422;26.092;2023-02-25T05:20:05;10.80;94.70
10447;DHT22;5271;44.422;26.092;2023-02-25T05:22:36;10.90;94.80
10447;DHT22;5271;44.422;26.092;2023-02-25T05:25:03;10.90;94.70
10447;DHT22;5271;44.422;26.092;2023-02-25T05:27:31;10.90;94.50
10447;DHT22;5271;44.422;26.092;2023-02-25T05:29:58;10.80;94.60
10447;DHT22;5271;44.422;26.092;2023-02-25T05:32:26;10.80;94.50
10447;DHT22;5271;44.422;26.092;2023-02-25T05:34:53;10.70;94.60
10447;DHT22;5271;44.422;26.092;2023-02-25T05:37:20;10.70;94.60
10447;DHT22;5271;44.422;26.092;2023-02-25T05:39:47;10.70;94.60
10447;DHT22;5271;44.422;26.092;2023-02-25T05:42:14;10.50;94.50
10447;DHT22;5271;44.422;26.092;2023-02-25T05:44:40;10.60;94.70
10447;DHT22;5271;44.422;26.092;2023-02-25T05:47:07;10.50;94.70
10447;DHT22;5271;44.422;26.092;2023-02-25T05:49:35;10.40;94.70
10447;DHT22;5271;44.422;26.092;2023-02-25T05:52:02;10.30;94.60
10447;DHT22;5271;44.422;26.092;2023-02-25T05:54:29;10.30;95.00
10447;DHT22;5271;44.422;26.092;2023-02-25T05:56:56;10.30;94.90
10447;DHT22;5271;44.422;26.092;2023-02-25T05:59:23;10.30;95.00
10447;DHT22;5271;44.422;26.092;2023-02-25T06:01:49;10.30;95.00
10447;DHT22;5271;44.422;26.092;2023-02-25T06:04:16;10.20;95.00
10447;DHT22;5271;44.422;26.092;2023-02-25T06:06:45;10.20;95.10
10447;DHT22;5271;44.422;26.092;2023-02-25T06:09:14;10.20;94.90
10447;DHT22;5271;44.422;26.092;2023-02-25T06:11:44;10.10;95.10
10447;DHT22;5271;44.422;26.092;2023-02-25T06:14:12;10.10;95.10
10447;DHT22;5271;44.422;26.092;2023-02-25T06:16:40;10.10;95.10
10447;DHT22;5271;44.422;26.092;2023-02-25T06:19:08;10.10;95.30
10447;DHT22;5271;44.422;26.092;2023-02-25T06:21:36;10.10;95.30
10447;DHT22;5271;44.422;26.092;2023-02-25T06:24:05;10.10;95.50
10447;DHT22;5271;44.422;26.092;2023-02-25T06:26:32;10.10;95.20
10447;DHT22;5271;44.422;26.092;2023-02-25T06:28:59;10.10;95.10
10447;DHT22;5271;44.422;26.092;2023-02-25T06:31:26;10.10;95.30
10447;DHT22;5271;44.422;26.092;2023-02-25T06:33:53;10.10;95.30
10447;DHT22;5271;44.422;26.092;2023-02-25T06:36:20;10.10;95.20
10447;DHT22;5271;44.422;26.092;2023-02-25T06:38:47;10.10;95.30
10447;DHT22;5271;44.422;26.092;2023-02-25T06:41:18;10.10;95.40
10447;DHT22;5271;44.422;26.092;2023-02-25T06:43:45;10.10;95.10
10447;DHT22;5271;44.422;26.092;2023-02-25T06:46:17;10.10;95.00
10447;DHT22;5271;44.422;26.092;2023-02-25T06:48:45;10.10;95.10
10447;DHT22;5271;44.422;26.092;2023-02-25T06:51:12;10.00;95.10
10447;DHT22;5271;44.422;26.092;2023-02-25T06:53:40;9.90;95.20
10447;DHT22;5271;44.422;26.092;2023-02-25T06:56:09;9.90;95.40
10447;DHT22;5271;44.422;26.092;2023-02-25T06:58:38;9.80;95.40
10447;DHT22;5271;44.422;26.092;2023-02-25T07:01:06;9.80;95.40
10447;DHT22;5271;44.422;26.092;2023-02-25T07:03:33;9.80;95.50
10447;DHT22;5271;44.422;26.092;2023-02-25T07:06:00;9.80;95.60
10447;DHT22;5271;44.422;26.092;2023-02-25T07:08:27;9.80;95.50
10447;DHT22;5271;44.422;26.092;2023-02-25T07:10:54;9.80;95.50
10447;DHT22;5271;44.422;26.092;2023-02-25T07:13:21;9.90;95.60
10447;DHT22;5271;44.422;26.092;2023-02-25T07:15:49;9.90;95.60
10447;DHT22;5271;44.422;26.092;2023-02-25T07:18:16;9.90;95.70
10447;DHT22;5271;44.422;26.092;2023-02-25T07:20:42;10.00;95.60
10447;DHT22;5271;44.422;26.092;2023-02-25T07:23:09;10.10;95.40
10447;DHT22;5271;44.422;26.092;2023-02-25T07:25:37;10.10;95.40
10447;DHT22;5271;44.422;26.092;2023-02-25T07:28:04;10.20;95.30
10447;DHT22;5271;44.422;26.092;2023-02-25T07:30:30;10.30;95.10
10447;DHT22;5271;44.422;26.092;2023-02-25T07:33:00;10.30;95.00
10447;DHT22;5271;44.422;26.092;2023-02-25T07:35:26;10.40;95.10
10447;DHT22;5271;44.422;26.092;2023-02-25T07:37:53;10.40;95.00
10447;DHT22;5271;44.422;26.092;2023-02-25T07:40:20;10.50;95.00
10447;DHT22;5271;44.422;26.092;2023-02-25T07:42:47;10.50;95.00
10447;DHT22;5271;44.422;26.092;2023-02-25T07:45:14;10.50;94.70
10447;DHT22;5271;44.422;26.092;2023-02-25T07:47:41;10.60;94.90
10447;DHT22;5271;44.422;26.092;2023-02-25T07:50:10;10.70;94.80
10447;DHT22;5271;44.422;26.092;2023-02-25T07:52:37;11.00;94.80
10447;DHT22;5271;44.422;26.092;2023-02-25T07:55:05;11.20;94.60
10447;DHT22;5271;44.422;26.092;2023-02-25T07:57:32;11.50;94.80
10447;DHT22;5271;44.422;26.092;2023-02-25T07:59:59;11.80;93.50
10447;DHT22;5271;44.422;26.092;2023-02-25T08:02:26;12.10;93.30
10447;DHT22;5271;44.422;26.092;2023-02-25T08:04:53;12.10;92.80
10447;DHT22;5271;44.422;26.092;2023-02-25T08:07:21;12.10;93.20
10447;DHT22;5271;44.422;26.092;2023-02-25T08:09:48;12.20;92.70
10447;DHT22;5271;44.422;26.092;2023-02-25T08:12:15;12.30;92.60
10447;DHT22;5271;44.422;26.092;2023-02-25T08:14:42;12.30;92.70
10447;DHT22;5271;44.422;26.092;2023-02-25T08:17:10;12.40;92.40
10447;DHT22;5271;44.422;26.092;2023-02-25T08:19:37;12.40;92.30
10447;DHT22;5271;44.422;26.092;2023-02-25T08:22:04;12.30;92.40
10447;DHT22;5271;44.422;26.092;2023-02-25T08:24:32;12.20;92.50
10447;DHT22;5271;44.422;26.092;2023-02-25T08:26:59;12.20;92.80
10447;DHT22;5271;44.422;26.092;2023-02-25T08:29:26;12.20;92.50
10447;DHT22;5271;44.422;26.092;2023-02-25T08:31:53;12.30;92.20
10447;DHT22;5271;44.422;26.092;2023-02-25T08:34:20;12.30;92.50
10447;DHT22;5271;44.422;26.092;2023-02-25T08:36:47;12.30;92.50
10447;DHT22;5271;44.422;26.092;2023-02-25T08:39:14;12.20;92.10
10447;DHT22;5271;44.422;26.092;2023-02-25T08:41:44;12.30;92.40
10447;DHT22;5271;44.422;26.092;2023-02-25T08:44:11;12.30;92.30
10447;DHT22;5271;44.422;26.092;2023-02-25T08:46:38;12.20;92.30
10447;DHT22;5271;44.422;26.092;2023-02-25T08:49:04;12.10;92.40
10447;DHT22;5271;44.422;26.092;2023-02-25T08:51:32;11.90;92.70
10447;DHT22;5271;44.422;26.092;2023-02-25T08:54:01;11.90;93.00
10447;DHT22;5271;44.422;26.092;2023-02-25T08:56:28;11.90;93.10
10447;DHT22;5271;44.422;26.092;2023-02-25T08:58:57;11.90;93.30
10447;DHT22;5271;44.422;26.092;2023-02-25T09:01:24;11.90;93.30
10447;DHT22;5271;44.422;26.092;2023-02-25T09:03:52;12.20;93.50
10447;DHT22;5271;44.422;26.092;2023-02-25T09:06:20;12.70;92.90
10447;DHT22;5271;44.422;26.092;2023-02-25T09:08:47;12.90;92.10
10447;DHT22;5271;44.422;26.092;2023-02-25T09:11:14;12.80;91.80
10447;DHT22;5271;44.422;26.092;2023-02-25T09:13:41;13.00;92.10
10447;DHT22;5271;44.422;26.092;2023-02-25T09:16:10;13.30;92.30
10447;DHT22;5271;44.422;26.092;2023-02-25T09:18:41;14.00;92.40
10447;DHT22;5271;44.422;26.092;2023-02-25T09:21:08;14.60;90.90
10447;DHT22;5271;44.422;26.092;2023-02-25T09:23:35;15.40;90.00
10447;DHT22;5271;44.422;26.092;2023-02-25T09:26:03;16.30;88.60
10447;DHT22;5271;44.422;26.092;2023-02-25T09:28:30;17.10;84.80
10447;DHT22;5271;44.422;26.092;2023-02-25T09:30:57;18.00;82.00
10447;DHT22;5271;44.422;26.092;2023-02-25T09:33:27;19.00;78.80
10447;DHT22;5271;44.422;26.092;2023-02-25T09:35:54;19.20;75.20
10447;DHT22;5271;44.422;26.092;2023-02-25T09:38:21;19.20;73.70
10447;DHT22;5271;44.422;26.092;2023-02-25T09:40:48;18.90;73.70
10447;DHT22;5271;44.422;26.092;2023-02-25T09:43:21;18.60;76.00
10447;DHT22;5271;44.422;26.092;2023-02-25T09:45:51;18.20;75.60
10447;DHT22;5271;44.422;26.092;2023-02-25T09:48:23;17.80;76.00
10447;DHT22;5271;44.422;26.092;2023-02-25T09:50:56;18.00;78.30
10447;DHT22;5271;44.422;26.092;2023-02-25T09:53:29;18.10;75.90
10447;DHT22;5271;44.422;26.092;2023-02-25T09:55:57;17.80;77.00
10447;DHT22;5271;44.422;26.092;2023-02-25T09:58:29;18.90;74.80
10447;DHT22;5271;44.422;26.092;2023-02-25T10:01:02;19.30;72.50
10447;DHT22;5271;44.422;26.092;2023-02-25T10:03:44;18.50;72.10
10447;DHT22;5271;44.422;26.092;2023-02-25T10:06:19;19.10;73.10
10447;DHT22;5271;44.422;26.092;2023-02-25T10:08:53;19.40;71.40
10447;DHT22;5271;44.422;26.092;2023-02-25T10:11:28;19.60;71.00
10447;DHT22;5271;44.422;26.092;2023-02-25T10:14:10;18.90;71.00
10447;DHT22;5271;44.422;26.092;2023-02-25T10:16:42;18.60;72.10
10447;DHT22;5271;44.422;26.092;2023-02-25T10:19:25;17.50;73.70
10447;DHT22;5271;44.422;26.092;2023-02-25T10:22:10;16.90;75.00
10447;DHT22;5271;44.422;26.092;2023-02-25T10:24:44;16.30;75.90
10447;DHT22;5271;44.422;26.092;2023-02-25T10:27:19;16.00;76.90
10447;DHT22;5271;44.422;26.092;2023-02-25T10:29:48;15.90;78.20
10447;DHT22;5271;44.422;26.092;2023-02-25T10:32:19;16.00;78.50
10447;DHT22;5271;44.422;26.092;2023-02-25T10:34:48;15.90;77.40
10447;DHT22;5271;44.422;26.092;2023-02-25T10:37:20;15.70;77.80
10447;DHT22;5271;44.422;26.092;2023-02-25T10:39:56;15.40;78.50
10447;DHT22;5271;44.422;26.092;2023-02-25T10:42:23;15.20;79.80
10447;DHT22;5271;44.422;26.092;2023-02-25T10:44:50;15.20;80.50
10447;DHT22;5271;44.422;26.092;2023-02-25T10:47:25;15.00;80.50
10447;DHT22;5271;44.422;26.092;2023-02-25T10:50:16;14.80;79.90
10447;DHT22;5271;44.422;26.092;2023-02-25T10:52:57;14.50;80.90
10447;DHT22;5271;44.422;26.092;2023-02-25T10:55:27;14.30;81.30
10447;DHT22;5271;44.422;26.092;2023-02-25T10:57:57;14.00;80.90
10447;DHT22;5271;44.422;26.092;2023-02-25T11:00:27;14.10;81.30
10447;DHT22;5271;44.422;26.092;2023-02-25T11:02:54;14.40;80.40
10447;DHT22;5271;44.422;26.092;2023-02-25T11:05:33;14.70;80.30
10447;DHT22;5271;44.422;26.092;2023-02-25T11:08:04;14.80;80.10
10447;DHT22;5271;44.422;26.092;2023-02-25T11:10:33;14.90;79.00
10447;DHT22;5271;44.422;26.092;2023-02-25T11:13:00;14.80;78.80
10447;DHT22;5271;44.422;26.092;2023-02-25T11:15:32;14.60;79.40
10447;DHT22;5271;44.422;26.092;2023-02-25T11:18:05;14.30;80.00
10447;DHT22;5271;44.422;26.092;2023-02-25T11:20:33;13.80;80.60
10447;DHT22;5271;44.422;26.092;2023-02-25T11:23:02;13.50;81.70
10447;DHT22;5271;44.422;26.092;2023-02-25T11:25:36;13.20;82.50
10447;DHT22;5271;44.422;26.092;2023-02-25T11:28:04;13.00;82.40
10447;DHT22;5271;44.422;26.092;2023-02-25T11:30:35;12.90;83.40
10447;DHT22;5271;44.422;26.092;2023-02-25T11:33:06;12.80;84.00
10447;DHT22;5271;44.422;26.092;2023-02-25T11:35:36;12.80;84.40
10447;DHT22;5271;44.422;26.092;2023-02-25T11:38:15;12.90;84.40
10447;DHT22;5271;44.422;26.092;2023-02-25T11:40:43;12.80;84.50
10447;DHT22;5271;44.422;26.092;2023-02-25T11:43:17;12.90;84.70
10447;DHT22;5271;44.422;26.092;2023-02-25T11:45:50;12.90;84.80
10447;DHT22;5271;44.422;26.092;2023-02-25T11:48:20;12.90;84.70
10447;DHT22;5271;44.422;26.092;2023-02-25T11:51:03;13.00;84.10
10447;DHT22;5271;44.422;26.092;2023-02-25T11:53:46;13.10;84.20
10447;DHT22;5271;44.422;26.092;2023-02-25T11:56:23;13.40;83.90
10447;DHT22;5271;44.422;26.092;2023-02-25T11:59:00;13.60;82.90
10447;DHT22;5271;44.422;26.092;2023-02-25T12:01:41;13.70;81.60
10447;DHT22;5271;44.422;26.092;2023-02-25T12:07:29;13.80;82.10
10447;DHT22;5271;44.422;26.092;2023-02-25T12:10:26;13.50;83.00
10447;DHT22;5271;44.422;26.092;2023-02-25T12:13:23;13.30;83.30
10447;DHT22;5271;44.422;26.092;2023-02-25T12:16:27;13.20;83.70
10447;DHT22;5271;44.422;26.092;2023-02-25T12:19:19;13.20;84.10
10447;DHT22;5271;44.422;26.092;2023-02-25T12:25:00;13.40;82.80
10447;DHT22;5271;44.422;26.092;2023-02-25T12:28:02;13.30;82.00
10447;DHT22;5271;44.422;26.092;2023-02-25T12:30:42;13.30;81.70
10447;DHT22;5271;44.422;26.092;2023-02-25T12:33:23;13.30;82.40
10447;DHT22;5271;44.422;26.092;2023-02-25T12:42:03;13.10;81.80
10447;DHT22;5271;44.422;26.092;2023-02-25T12:44:54;13.00;82.70
10447;DHT22;5271;44.422;26.092;2023-02-25T12:47:39;13.00;83.00
10447;DHT22;5271;44.422;26.092;2023-02-25T12:50:49;12.90;83.00
10447;DHT22;5271;44.422;26.092;2023-02-25T12:53:25;12.90;83.00
10447;DHT22;5271;44.422;26.092;2023-02-25T12:56:21;12.90;82.90
10447;DHT22;5271;44.422;26.092;2023-02-25T12:59:16;12.90;82.60
10447;DHT22;5271;44.422;26.092;2023-02-25T13:01:58;13.10;82.70
10447;DHT22;5271;44.422;26.092;2023-02-25T13:04:49;13.10;83.20
10447;DHT22;5271;44.422;26.092;2023-02-25T13:13:29;12.70;83.90
10447;DHT22;5271;44.422;26.092;2023-02-25T13:16:18;12.80;82.90
10447;DHT22;5271;44.422;26.092;2023-02-25T13:18:55;12.90;82.90
10447;DHT22;5271;44.422;26.092;2023-02-25T13:21:32;12.90;83.20
10447;DHT22;5271;44.422;26.092;2023-02-25T13:27:19;12.80;82.90
10447;DHT22;5271;44.422;26.092;2023-02-25T13:30:01;12.70;82.60
10447;DHT22;5271;44.422;26.092;2023-02-25T13:32:36;12.70;83.00
10447;DHT22;5271;44.422;26.092;2023-02-25T13:35:22;12.80;83.20
10447;DHT22;5271;44.422;26.092;2023-02-25T13:38:04;12.80;82.90
10447;DHT22;5271;44.422;26.092;2023-02-25T13:40:48;13.00;82.60
10447;DHT22;5271;44.422;26.092;2023-02-25T13:43:48;13.00;82.00
10447;DHT22;5271;44.422;26.092;2023-02-25T13:46:37;13.10;81.80
10447;DHT22;5271;44.422;26.092;2023-02-25T13:49:33;13.10;82.20
10447;DHT22;5271;44.422;26.092;2023-02-25T13:52:13;13.00;82.40
10447;DHT22;5271;44.422;26.092;2023-02-25T13:55:15;13.00;83.00
10447;DHT22;5271;44.422;26.092;2023-02-25T13:57:56;12.90;82.50
10447;DHT22;5271;44.422;26.092;2023-02-25T14:00:39;12.90;82.70
10447;DHT22;5271;44.422;26.092;2023-02-25T14:03:46;13.00;82.50
10447;DHT22;5271;44.422;26.092;2023-02-25T14:06:31;12.90;83.00
10447;DHT22;5271;44.422;26.092;2023-02-25T14:09:15;13.00;82.90
10447;DHT22;5271;44.422;26.092;2023-02-25T14:11:53;12.90;82.80
10447;DHT22;5271;44.422;26.092;2023-02-25T14:14:43;12.90;82.90
10447;DHT22;5271;44.422;26.092;2023-02-25T14:17:33;12.90;82.60
10447;DHT22;5271;44.422;26.092;2023-02-25T14:20:14;12.90;82.40
10447;DHT22;5271;44.422;26.092;2023-02-25T14:22:46;12.80;82.60
10447;DHT22;5271;44.422;26.092;2023-02-25T14:28:20;12.70;82.50
10447;DHT22;5271;44.422;26.092;2023-02-25T14:30:57;12.60;82.30
10447;DHT22;5271;44.422;26.092;2023-02-25T14:33:46;12.60;82.70
10447;DHT22;5271;44.422;26.092;2023-02-25T14:36:41;12.50;82.50
10447;DHT22;5271;44.422;26.092;2023-02-25T14:39:36;12.50;82.70
10447;DHT22;5271;44.422;26.092;2023-02-25T14:42:17;12.60;82.50
10447;DHT22;5271;44.422;26.092;2023-02-25T14:44:54;12.60;83.00
10447;DHT22;5271;44.422;26.092;2023-02-25T14:47:27;12.50;83.20
10447;DHT22;5271;44.422;26.092;2023-02-25T14:49:58;12.40;83.10
10447;DHT22;5271;44.422;26.092;2023-02-25T14:52:48;12.30;83.10
10447;DHT22;5271;44.422;26.092;2023-02-25T14:55:45;12.20;83.60
10447;DHT22;5271;44.422;26.092;2023-02-25T14:58:54;12.20;83.20
10447;DHT22;5271;44.422;26.092;2023-02-25T15:01:51;12.20;83.20
10447;DHT22;5271;44.422;26.092;2023-02-25T15:07:48;12.00;82.80
10447;DHT22;5271;44.422;26.092;2023-02-25T15:10:35;11.90;82.90
10447;DHT22;5271;44.422;26.092;2023-02-25T15:16:48;11.70;83.10
10447;DHT22;5271;44.422;26.092;2023-02-25T15:19:38;11.60;83.90
10447;DHT22;5271;44.422;26.092;2023-02-25T15:22:23;11.60;83.90
10447;DHT22;5271;44.422;26.092;2023-02-25T15:24:51;11.50;83.60
10447;DHT22;5271;44.422;26.092;2023-02-25T15:27:45;11.50;83.90
10447;DHT22;5271;44.422;26.092;2023-02-25T15:30:15;11.40;83.70
10447;DHT22;5271;44.422;26.092;2023-02-25T15:35:54;11.40;83.70
10447;DHT22;5271;44.422;26.092;2023-02-25T15:38:38;11.40;83.60
10447;DHT22;5271;44.422;26.092;2023-02-25T15:41:37;11.40;83.30
10447;DHT22;5271;44.422;26.092;2023-02-25T15:44:28;11.30;83.10
10447;DHT22;5271;44.422;26.092;2023-02-25T15:47:14;11.30;83.20
10447;DHT22;5271;44.422;26.092;2023-02-25T15:49:45;11.20;83.50
10447;DHT22;5271;44.422;26.092;2023-02-25T15:52:49;11.20;83.90
10447;DHT22;5271;44.422;26.092;2023-02-25T15:55:34;11.20;83.90
10447;DHT22;5271;44.422;26.092;2023-02-25T15:58:15;11.10;83.50
10447;DHT22;5271;44.422;26.092;2023-02-25T16:01:37;11.20;83.60
10447;DHT22;5271;44.422;26.092;2023-02-25T16:04:41;11.20;83.60
10447;DHT22;5271;44.422;26.092;2023-02-25T16:07:14;11.10;82.60
10447;DHT22;5271;44.422;26.092;2023-02-25T16:09:48;11.10;82.60
10447;DHT22;5271;44.422;26.092;2023-02-25T16:12:16;11.10;82.60
10447;DHT22;5271;44.422;26.092;2023-02-25T16:14:44;11.00;82.00
10447;DHT22;5271;44.422;26.092;2023-02-25T16:17:16;11.00;81.80
10447;DHT22;5271;44.422;26.092;2023-02-25T16:19:46;10.90;81.90
10447;DHT22;5271;44.422;26.092;2023-02-25T16:22:19;10.90;81.80
10447;DHT22;5271;44.422;26.092;2023-02-25T16:24:48;10.90;81.20
10447;DHT22;5271;44.422;26.092;2023-02-25T16:27:24;10.80;81.50
10447;DHT22;5271;44.422;26.092;2023-02-25T16:29:59;10.80;81.40
10447;DHT22;5271;44.422;26.092;2023-02-25T16:32:35;10.70;81.50
10447;DHT22;5271;44.422;26.092;2023-02-25T16:35:08;10.70;81.50
10447;DHT22;5271;44.422;26.092;2023-02-25T16:37:43;10.70;81.60
10447;DHT22;5271;44.422;26.092;2023-02-25T16:40:15;10.80;81.80
10447;DHT22;5271;44.422;26.092;2023-02-25T16:42:44;10.80;81.70